createdAt,value
2018-07-05T00:01:37.264Z,16.00
2018-07-05T00:04:16.886Z,16.00
2018-07-05T00:06:56.479Z,16.00
2018-07-05T00:09:36.168Z,16.00
2018-07-05T00:12:15.783Z,15.90
2018-07-05T00:17:28.860Z,15.90
2018-07-05T00:20:08.447Z,15.90
2018-07-05T00:22:48.045Z,15.90
2018-07-05T00:25:27.665Z,15.80
2018-07-05T00:28:07.339Z,15.90
2018-07-05T00:30:46.871Z,15.90
2018-07-05T00:33:26.504Z,15.80
2018-07-05T00:36:06.167Z,15.80
2018-07-05T00:41:19.473Z,15.80
2018-07-05T00:43:59.040Z,15.80
2018-07-05T00:46:38.654Z,15.70
2018-07-05T00:49:18.333Z,15.70
2018-07-05T00:51:58.024Z,15.70
2018-07-05T00:54:37.657Z,15.70
2018-07-05T00:57:17.144Z,15.80
2018-07-05T00:59:56.814Z,15.90
2018-07-05T01:02:36.427Z,15.90
2018-07-05T01:05:16.069Z,16.00
2018-07-05T01:07:55.699Z,16.00
2018-07-05T01:10:35.445Z,16.00
2018-07-05T01:13:15.044Z,16.10
2018-07-05T01:18:28.408Z,16.10
2018-07-05T01:21:07.974Z,16.00
2018-07-05T01:23:47.553Z,16.00
2018-07-05T01:26:27.114Z,15.90
2018-07-05T01:31:40.550Z,15.90
2018-07-05T01:34:20.136Z,15.90
2018-07-05T01:36:59.798Z,15.90
2018-07-05T01:39:39.504Z,15.90
2018-07-05T01:42:19.096Z,15.80
2018-07-05T01:44:58.692Z,15.80
2018-07-05T01:47:38.349Z,15.70
2018-07-05T01:50:17.865Z,15.70
2018-07-05T01:52:57.497Z,15.70
2018-07-05T01:55:37.142Z,15.60
2018-07-05T01:58:16.664Z,15.60
2018-07-05T02:00:56.336Z,15.60
2018-07-05T02:03:35.984Z,15.60
2018-07-05T02:06:15.509Z,15.50
2018-07-05T02:08:55.169Z,15.50
2018-07-05T02:11:34.919Z,15.50
2018-07-05T02:14:14.643Z,15.50
2018-07-05T02:16:54.049Z,15.50
2018-07-05T02:19:33.729Z,15.40
2018-07-05T02:22:13.271Z,15.40
2018-07-05T02:24:52.925Z,15.40
2018-07-05T02:27:32.666Z,15.40
2018-07-05T02:30:12.245Z,15.30
2018-07-05T02:32:51.847Z,15.30
2018-07-05T02:35:31.482Z,15.30
2018-07-05T02:38:16.728Z,15.20
2018-07-05T02:40:56.858Z,15.20
2018-07-05T02:43:36.474Z,15.30
2018-07-05T02:46:16.190Z,15.30
2018-07-05T02:48:55.819Z,15.30
2018-07-05T02:51:35.443Z,15.30
2018-07-05T02:54:15.124Z,15.30
2018-07-05T02:56:54.768Z,15.30
2018-07-05T02:59:34.697Z,15.30
2018-07-05T03:02:14.228Z,15.40
2018-07-05T03:04:53.870Z,15.40
2018-07-05T03:07:33.592Z,15.40
2018-07-05T03:10:13.364Z,15.50
2018-07-05T03:12:53.232Z,15.50
2018-07-05T03:15:32.757Z,15.50
2018-07-05T03:18:12.485Z,15.50
2018-07-05T03:20:51.926Z,15.50
2018-07-05T03:23:31.552Z,15.50
2018-07-05T03:26:11.048Z,15.40
2018-07-05T03:28:50.676Z,15.40
2018-07-05T03:31:30.279Z,15.30
2018-07-05T03:34:09.832Z,15.40
2018-07-05T03:36:49.412Z,15.40
2018-07-05T03:39:29.028Z,15.40
2018-07-05T03:42:08.696Z,15.50
2018-07-05T03:44:48.328Z,15.50
2018-07-05T03:47:27.956Z,15.50
2018-07-05T03:50:07.418Z,15.50
2018-07-05T03:52:47.170Z,15.50
2018-07-05T03:55:26.746Z,15.60
2018-07-05T03:58:06.446Z,15.70
2018-07-05T04:00:46.131Z,15.70
2018-07-05T04:03:25.904Z,15.80
2018-07-05T04:06:05.425Z,15.90
2018-07-05T04:08:45.108Z,15.90
2018-07-05T04:11:24.812Z,16.00
2018-07-05T04:14:04.519Z,16.00
2018-07-05T04:16:44.168Z,16.00
2018-07-05T04:19:23.844Z,16.10
2018-07-05T04:22:03.504Z,16.10
2018-07-05T04:24:43.188Z,16.10
2018-07-05T04:29:56.264Z,16.10
2018-07-05T04:32:36.108Z,16.00
2018-07-05T04:35:15.748Z,16.00
2018-07-05T04:37:55.250Z,16.10
2018-07-05T04:40:34.931Z,16.10
2018-07-05T04:43:14.678Z,16.20
2018-07-05T04:45:54.333Z,16.20
2018-07-05T04:48:33.981Z,16.30
2018-07-05T04:51:13.648Z,16.30
2018-07-05T04:53:53.355Z,16.40
2018-07-05T04:56:33.057Z,16.40
2018-07-05T04:59:12.730Z,16.40
2018-07-05T05:01:52.249Z,16.40
2018-07-05T05:04:31.880Z,16.40
2018-07-05T05:07:11.488Z,16.40
2018-07-05T05:09:51.192Z,16.50
2018-07-05T05:12:30.776Z,16.40
2018-07-05T05:15:10.528Z,16.40
2018-07-05T05:17:49.989Z,16.40
2018-07-05T05:20:29.644Z,16.40
2018-07-05T05:23:09.254Z,16.40
2018-07-05T05:25:48.928Z,16.40
2018-07-05T05:28:28.540Z,16.40
2018-07-05T05:31:08.204Z,16.40
2018-07-05T05:33:47.800Z,16.50
2018-07-05T05:36:27.460Z,16.50
2018-07-05T05:39:07.023Z,16.50
2018-07-05T05:41:46.752Z,16.50
2018-07-05T05:46:59.944Z,16.50
2018-07-05T05:49:39.661Z,16.50
2018-07-05T05:52:19.504Z,16.50
2018-07-05T05:54:59.150Z,16.60
2018-07-05T05:57:38.744Z,16.60
2018-07-05T06:00:18.428Z,16.60
2018-07-05T06:02:58.076Z,16.70
2018-07-05T06:05:37.707Z,16.70
2018-07-05T06:08:17.448Z,16.70
2018-07-05T06:10:57.028Z,16.80
2018-07-05T06:13:36.668Z,16.80
2018-07-05T06:16:16.254Z,16.90
2018-07-05T06:18:56.015Z,17.00
2018-07-05T06:21:35.528Z,17.10
2018-07-05T06:24:14.911Z,17.20
2018-07-05T06:26:54.621Z,17.30
2018-07-05T06:29:34.368Z,17.40
2018-07-05T06:32:13.896Z,17.50
2018-07-05T06:34:53.593Z,17.60
2018-07-05T06:37:33.257Z,17.70
2018-07-05T06:40:12.955Z,17.80
2018-07-05T06:42:52.603Z,17.90
2018-07-05T06:45:32.181Z,18.00
2018-07-05T06:48:11.796Z,17.90
2018-07-05T06:50:51.402Z,17.90
2018-07-05T06:53:31.051Z,17.90
2018-07-05T06:56:10.743Z,17.90
2018-07-05T06:58:50.546Z,17.80
2018-07-05T07:01:30.261Z,17.70
2018-07-05T07:04:09.906Z,17.70
2018-07-05T07:06:49.553Z,17.80
2018-07-05T07:12:02.775Z,17.90
2018-07-05T07:14:42.313Z,18.10
2018-07-05T07:17:22.149Z,18.20
2018-07-05T07:20:01.922Z,18.30
2018-07-05T07:22:41.696Z,18.50
2018-07-05T07:25:21.303Z,18.60
2018-07-05T07:28:01.047Z,18.70
2018-07-05T07:33:14.201Z,18.80
2018-07-05T07:38:27.459Z,19.10
2018-07-05T07:41:06.989Z,19.20
2018-07-05T07:43:34.222Z,19.30
2018-07-05T07:46:01.464Z,19.50
2018-07-05T07:48:28.738Z,19.60
2018-07-05T07:50:55.995Z,19.70
2018-07-05T07:53:23.245Z,19.70
2018-07-05T07:55:50.497Z,19.90
2018-07-05T07:58:17.795Z,19.90
2018-07-05T08:00:45.028Z,19.90
2018-07-05T08:03:12.285Z,20.00
2018-07-05T08:05:39.589Z,20.00
2018-07-05T08:08:06.925Z,20.10
2018-07-05T08:10:34.159Z,20.20
2018-07-05T08:13:01.423Z,20.30
2018-07-05T08:15:28.663Z,20.40
2018-07-05T08:17:55.899Z,20.50
2018-07-05T08:22:50.662Z,20.60
2018-07-05T08:25:18.063Z,20.60
2018-07-05T08:27:45.317Z,20.70
2018-07-05T08:30:12.565Z,20.70
2018-07-05T08:32:39.920Z,20.80
2018-07-05T08:35:07.178Z,20.80
2018-07-05T08:40:01.921Z,20.90
2018-07-05T08:42:29.161Z,20.90
2018-07-05T08:44:56.465Z,20.90
2018-07-05T08:47:23.632Z,20.90
2018-07-05T08:49:50.898Z,20.90
2018-07-05T08:52:18.284Z,20.90
2018-07-05T08:54:45.934Z,20.90
2018-07-05T08:57:13.176Z,20.90
2018-07-05T08:59:40.422Z,20.90
2018-07-05T09:02:07.727Z,20.90
2018-07-05T09:04:35.188Z,21.00
2018-07-05T09:07:02.838Z,21.00
2018-07-05T09:09:30.061Z,21.00
2018-07-05T09:11:57.302Z,21.00
2018-07-05T09:16:52.117Z,20.90
2018-07-05T09:21:46.819Z,21.00
2018-07-05T09:24:14.092Z,21.00
2018-07-05T09:26:41.566Z,21.00
2018-07-05T09:31:36.503Z,21.10
2018-07-05T09:34:03.732Z,21.10
2018-07-05T09:36:30.978Z,21.10
2018-07-05T09:38:58.212Z,21.10
2018-07-05T09:41:25.450Z,21.20
2018-07-05T09:43:52.756Z,21.20
2018-07-05T09:46:19.999Z,21.20
2018-07-05T09:48:47.228Z,21.20
2018-07-05T09:51:14.483Z,21.20
2018-07-05T09:53:41.730Z,21.10
2018-07-05T09:56:08.952Z,21.10
2018-07-05T09:58:36.182Z,21.10
2018-07-05T10:03:31.034Z,21.00
2018-07-05T10:08:25.744Z,21.00
2018-07-05T10:10:54.008Z,21.10
2018-07-05T10:13:21.331Z,21.10
2018-07-05T10:15:48.476Z,21.10
2018-07-05T10:18:15.720Z,21.10
2018-07-05T10:20:42.994Z,21.20
2018-07-05T10:25:37.748Z,21.20
2018-07-05T10:28:04.993Z,21.20
2018-07-05T10:30:44.632Z,21.30
2018-07-05T10:33:24.294Z,21.30
2018-07-05T10:35:51.525Z,21.30
2018-07-05T10:38:18.786Z,21.30
2018-07-05T10:43:31.748Z,21.30
2018-07-05T10:46:11.377Z,21.40
2018-07-05T10:48:51.082Z,21.40
2018-07-05T10:51:30.528Z,21.50
2018-07-05T10:54:10.189Z,21.60
2018-07-05T10:56:49.866Z,21.60
2018-07-05T10:59:30.399Z,21.70
2018-07-05T11:02:09.928Z,21.80
2018-07-05T11:04:49.588Z,21.80
2018-07-05T11:07:29.337Z,21.80
2018-07-05T11:10:09.079Z,21.80
2018-07-05T11:12:48.540Z,21.80
2018-07-05T11:15:28.216Z,21.70
2018-07-05T11:18:07.896Z,21.70
2018-07-05T11:20:47.613Z,21.70
2018-07-05T11:23:27.524Z,21.80
2018-07-05T11:28:40.556Z,21.90
2018-07-05T11:31:20.361Z,22.10
2018-07-05T11:33:59.933Z,22.10
2018-07-05T11:36:39.627Z,22.10
2018-07-05T11:39:19.293Z,22.20
2018-07-05T11:41:58.935Z,22.10
2018-07-05T11:44:38.581Z,22.20
2018-07-05T11:47:18.231Z,22.20
2018-07-05T11:49:57.865Z,22.20
2018-07-05T11:52:37.621Z,22.30
2018-07-05T11:55:17.369Z,22.30
2018-07-05T11:57:57.085Z,22.50
2018-07-05T12:00:36.829Z,22.70
2018-07-05T12:03:16.513Z,22.80
2018-07-05T12:05:56.288Z,22.90
2018-07-05T12:08:36.095Z,22.90
2018-07-05T12:11:15.815Z,23.00
2018-07-05T12:13:55.459Z,23.00
2018-07-05T12:16:35.187Z,23.00
2018-07-05T12:19:14.862Z,23.20
2018-07-05T12:21:54.635Z,23.20
2018-07-05T12:24:34.247Z,23.20
2018-07-05T12:27:13.897Z,23.30
2018-07-05T12:29:53.871Z,23.30
2018-07-05T12:32:33.541Z,23.40
2018-07-05T12:35:13.161Z,23.50
2018-07-05T12:37:52.856Z,23.70
2018-07-05T12:40:32.509Z,23.80
2018-07-05T12:43:12.123Z,23.90
2018-07-05T12:45:51.649Z,24.00
2018-07-05T12:48:31.309Z,24.10
2018-07-05T12:51:10.921Z,24.10
2018-07-05T12:56:24.165Z,24.10
2018-07-05T12:59:03.857Z,24.00
2018-07-05T13:01:43.624Z,24.00
2018-07-05T13:04:23.214Z,24.00
2018-07-05T13:07:02.805Z,24.10
2018-07-05T13:09:42.599Z,24.10
2018-07-05T13:12:22.171Z,24.10
2018-07-05T13:15:01.842Z,24.20
2018-07-05T13:17:41.483Z,24.20
2018-07-05T13:20:21.265Z,24.20
2018-07-05T13:23:01.015Z,24.30
2018-07-05T13:25:40.777Z,24.30
2018-07-05T13:28:20.348Z,24.30
2018-07-05T13:31:00.050Z,24.20
2018-07-05T13:33:39.591Z,24.30
2018-07-05T13:36:19.279Z,24.30
2018-07-05T13:38:59.017Z,24.30
2018-07-05T13:41:38.661Z,24.30
2018-07-05T13:44:18.277Z,24.40
2018-07-05T13:46:57.915Z,24.40
2018-07-05T13:49:37.565Z,24.40
2018-07-05T13:52:17.325Z,24.30
2018-07-05T13:54:57.000Z,24.30
2018-07-05T13:57:37.360Z,24.20
2018-07-05T14:02:50.762Z,24.30
2018-07-05T14:05:30.372Z,24.30
2018-07-05T14:08:10.039Z,24.30
2018-07-05T14:10:49.704Z,24.30
2018-07-05T14:13:29.248Z,24.30
2018-07-05T14:16:08.846Z,24.30
2018-07-05T14:18:48.346Z,24.30
2018-07-05T14:24:01.260Z,24.30
2018-07-05T14:26:40.855Z,24.40
2018-07-05T14:29:20.404Z,24.30
2018-07-05T14:31:59.960Z,24.40
2018-07-05T14:34:39.589Z,24.50
2018-07-05T14:37:19.208Z,24.50
2018-07-05T14:39:58.857Z,24.50
2018-07-05T14:42:38.661Z,24.50
2018-07-05T14:45:18.420Z,24.50
2018-07-05T14:47:58.051Z,24.40
2018-07-05T14:50:37.791Z,24.40
2018-07-05T14:55:51.064Z,24.40
2018-07-05T14:58:30.672Z,24.60
2018-07-05T15:01:10.428Z,24.70
2018-07-05T15:03:50.074Z,24.70
2018-07-05T15:06:29.712Z,24.70
2018-07-05T15:09:09.281Z,24.80
2018-07-05T15:11:48.934Z,24.90
2018-07-05T15:14:28.590Z,24.80
2018-07-05T15:17:08.117Z,24.90
2018-07-05T15:19:47.889Z,24.90
2018-07-05T15:22:27.644Z,24.90
2018-07-05T15:25:07.298Z,25.10
2018-07-05T15:27:46.892Z,25.20
2018-07-05T15:30:26.448Z,25.30
2018-07-05T15:33:06.208Z,25.30
2018-07-05T15:35:45.824Z,25.30
2018-07-05T15:38:25.464Z,25.30
2018-07-05T15:41:05.115Z,25.30
2018-07-05T15:43:44.921Z,25.20
2018-07-05T15:46:24.664Z,25.20
2018-07-05T15:49:04.264Z,25.20
2018-07-05T15:51:43.992Z,25.10
2018-07-05T15:54:23.522Z,25.00
2018-07-05T15:57:03.125Z,25.00
2018-07-05T15:59:42.793Z,24.90
2018-07-05T16:02:22.520Z,24.90
2018-07-05T16:05:02.249Z,24.90
2018-07-05T16:07:41.997Z,24.80
2018-07-05T16:10:21.676Z,24.70
2018-07-05T16:13:01.295Z,24.70
2018-07-05T16:15:40.930Z,24.60
2018-07-05T16:18:20.650Z,24.60
2018-07-05T16:21:00.300Z,24.70
2018-07-05T16:23:39.829Z,24.70
2018-07-05T16:26:19.355Z,24.80
2018-07-05T16:28:59.038Z,24.70
2018-07-05T16:31:38.752Z,24.70
2018-07-05T16:36:52.005Z,24.50
2018-07-05T16:39:31.665Z,24.40
2018-07-05T16:42:11.344Z,24.40
2018-07-05T16:44:51.001Z,24.20
2018-07-05T16:47:30.695Z,24.00
2018-07-05T16:50:10.471Z,23.90
2018-07-05T16:52:50.170Z,23.70
2018-07-05T16:55:29.776Z,23.40
2018-07-05T16:58:09.386Z,23.10
2018-07-05T17:00:49.245Z,22.90
2018-07-05T17:03:28.805Z,22.60
2018-07-05T17:06:08.468Z,22.40
2018-07-05T17:08:48.110Z,22.30
2018-07-05T17:11:27.666Z,22.10
2018-07-05T17:14:07.252Z,22.00
2018-07-05T17:16:46.838Z,21.80
2018-07-05T17:19:26.429Z,21.60
2018-07-05T17:22:06.171Z,21.50
2018-07-05T17:24:45.716Z,21.40
2018-07-05T17:27:25.450Z,21.30
2018-07-05T17:30:05.026Z,21.30
2018-07-05T17:35:18.268Z,21.10
2018-07-05T17:40:31.505Z,20.80
2018-07-05T17:43:11.167Z,20.70
2018-07-05T17:45:50.570Z,20.70
2018-07-05T17:48:30.261Z,20.50
2018-07-05T17:51:09.906Z,20.40
2018-07-05T17:53:49.284Z,20.30
2018-07-05T17:56:29.022Z,20.30
2018-07-05T17:59:08.452Z,20.30
2018-07-05T18:01:48.151Z,20.20
2018-07-05T18:04:27.886Z,20.20
2018-07-05T18:07:07.495Z,20.20
2018-07-05T18:09:47.176Z,20.30
2018-07-05T18:12:26.940Z,20.30
2018-07-05T18:15:06.573Z,20.30
2018-07-05T18:17:46.235Z,20.40
2018-07-05T18:20:25.904Z,20.30
2018-07-05T18:23:05.677Z,20.30
2018-07-05T18:25:45.267Z,20.30
2018-07-05T18:28:24.891Z,20.30
2018-07-05T18:31:04.582Z,20.20
2018-07-05T18:33:44.208Z,20.20
2018-07-05T18:36:23.867Z,20.20
2018-07-05T18:39:03.593Z,20.20
2018-07-05T18:41:43.137Z,20.20
2018-07-05T18:44:22.994Z,20.20
2018-07-05T18:47:02.837Z,20.20
2018-07-05T18:49:42.441Z,20.30
2018-07-05T18:52:22.221Z,20.30
2018-07-05T18:55:01.874Z,20.30
2018-07-05T18:57:41.616Z,20.20
2018-07-05T19:00:21.348Z,20.20
2018-07-05T19:03:00.975Z,20.20
2018-07-05T19:05:40.724Z,20.20
2018-07-05T19:08:20.568Z,20.10
2018-07-05T19:11:00.094Z,20.00
2018-07-05T19:13:39.796Z,20.00
2018-07-05T19:16:19.471Z,19.90
2018-07-05T19:18:59.077Z,19.80
2018-07-05T19:21:38.775Z,19.70
2018-07-05T19:24:18.359Z,19.60
2018-07-05T19:26:58.088Z,19.60
2018-07-05T19:29:37.684Z,19.50
2018-07-05T19:32:17.154Z,19.50
2018-07-05T19:34:57.005Z,19.40
2018-07-05T19:37:36.742Z,19.50
2018-07-05T19:40:16.385Z,19.40
2018-07-05T19:42:56.014Z,19.30
2018-07-05T19:45:35.774Z,19.30
2018-07-05T19:48:15.450Z,19.20
2018-07-05T19:50:55.199Z,19.20
2018-07-05T19:53:34.834Z,19.20
2018-07-05T19:56:14.636Z,19.20
2018-07-05T19:58:54.131Z,19.10
2018-07-05T20:01:33.777Z,19.10
2018-07-05T20:04:13.537Z,19.00
2018-07-05T20:06:53.345Z,19.00
2018-07-05T20:09:32.842Z,19.00
2018-07-05T20:12:12.595Z,19.00
2018-07-05T20:14:52.265Z,18.90
2018-07-05T20:17:32.051Z,18.90
2018-07-05T20:20:11.544Z,18.80
2018-07-05T20:22:51.198Z,18.80
2018-07-05T20:25:31.056Z,18.80
2018-07-05T20:28:10.814Z,18.70
2018-07-05T20:30:50.396Z,18.70
2018-07-05T20:33:30.145Z,18.70
2018-07-05T20:36:09.826Z,18.70
2018-07-05T20:38:49.564Z,18.70
2018-07-05T20:41:29.296Z,18.70
2018-07-05T20:44:08.973Z,18.70
2018-07-05T20:46:48.685Z,18.70
2018-07-05T20:49:28.479Z,18.60
2018-07-05T20:52:08.194Z,18.60
2018-07-05T20:54:47.941Z,18.50
2018-07-05T20:57:27.809Z,18.60
2018-07-05T21:00:07.412Z,18.50
2018-07-05T21:02:46.906Z,18.50
2018-07-05T21:05:26.651Z,18.50
2018-07-05T21:08:06.169Z,18.50
2018-07-05T21:10:45.797Z,18.50
2018-07-05T21:13:25.997Z,18.50
2018-07-05T21:16:05.751Z,18.50
2018-07-05T21:18:45.451Z,18.50
2018-07-05T21:21:25.163Z,18.40
2018-07-05T21:24:04.848Z,18.40
2018-07-05T21:26:44.321Z,18.40
2018-07-05T21:29:23.866Z,18.40
2018-07-05T21:32:03.347Z,18.40
2018-07-05T21:34:43.121Z,18.40
2018-07-05T21:37:22.634Z,18.30
2018-07-05T21:40:02.411Z,18.30
2018-07-05T21:42:42.209Z,18.30
2018-07-05T21:47:55.223Z,18.30
2018-07-05T21:50:34.883Z,18.30
2018-07-05T21:55:48.096Z,18.30
2018-07-05T21:58:28.205Z,18.20
2018-07-05T22:01:08.152Z,18.20
2018-07-05T22:03:47.795Z,18.20
2018-07-05T22:06:27.411Z,18.20
2018-07-05T22:09:07.085Z,18.20
2018-07-05T22:11:46.986Z,18.20
2018-07-05T22:14:26.604Z,18.20
2018-07-05T22:17:11.826Z,18.20
2018-07-05T22:19:56.828Z,18.20
2018-07-05T22:22:41.887Z,18.20
2018-07-05T22:30:45.038Z,18.20
2018-07-05T22:33:24.705Z,18.20
2018-07-05T22:36:04.518Z,18.20
2018-07-05T22:38:44.251Z,18.20
2018-07-05T22:41:23.935Z,18.30
2018-07-05T22:44:03.505Z,18.20
2018-07-05T22:46:43.223Z,18.20
2018-07-05T22:49:22.953Z,18.20
2018-07-05T22:52:02.568Z,18.20
2018-07-05T22:54:42.344Z,18.20
2018-07-05T22:57:21.964Z,18.20
2018-07-05T23:00:01.697Z,18.30
2018-07-05T23:02:41.392Z,18.30
2018-07-05T23:05:21.066Z,18.30
2018-07-05T23:08:00.678Z,18.30
2018-07-05T23:10:40.371Z,18.30
2018-07-05T23:13:19.979Z,18.30
2018-07-05T23:15:59.656Z,18.30
2018-07-05T23:18:39.392Z,18.30
2018-07-05T23:21:19.089Z,18.30
2018-07-05T23:23:58.582Z,18.30
2018-07-05T23:26:38.346Z,18.30
2018-07-05T23:29:18.120Z,18.30
2018-07-05T23:31:57.741Z,18.30
2018-07-05T23:34:37.376Z,18.30
2018-07-05T23:37:17.061Z,18.30
2018-07-05T23:39:56.713Z,18.30
2018-07-05T23:42:36.096Z,18.20
2018-07-05T23:45:15.741Z,18.30
2018-07-05T23:47:55.370Z,18.20
2018-07-05T23:50:35.101Z,18.30
2018-07-05T23:53:14.764Z,18.30
2018-07-05T23:55:54.429Z,18.20
2018-07-05T23:58:33.964Z,18.20
